Time;durP1;ratioP1;P1;durP2;ratioP2;P2;SDS_P1;SDS_P2;PMS_P1;PMS_P2;Temp;Humidity;BMP_temperature;BMP_pressure;BME280_temperature;BME280_humidity;BME280_pressure;Samples;Min_cycle;Max_cycle;Signal;HPM_P1;HPM_P2
2022/06/02 00:02:28;;;;;;;5.28;3.33;;;12.60;98.90;;;;;;5053958;28;20028;-82
2022/06/02 00:05:22;;;;;;;4.45;3.13;;;12.50;99.10;;;;;;5053881;28;20029;-85
2022/06/02 00:08:06;;;;;;;4.78;3.85;;;12.60;99.10;;;;;;5052564;28;20086;-83
2022/06/02 00:11:11;;;;;;;5.80;4.07;;;12.50;99.30;;;;;;5052114;28;20028;-85
2022/06/02 00:13:55;;;;;;;5.80;3.75;;;12.50;99.30;;;;;;5053187;28;20029;-85
2022/06/02 00:16:31;;;;;;;6.22;3.80;;;12.50;99.30;;;;;;5053288;28;20391;-86
2022/06/02 00:19:05;;;;;;;5.85;3.97;;;12.50;99.40;;;;;;5053116;28;20021;-85
2022/06/02 00:21:46;;;;;;;5.18;3.80;;;12.60;99.10;;;;;;5053599;28;20040;-85
2022/06/02 00:24:17;;;;;;;6.13;3.42;;;12.60;99.00;;;;;;5051897;28;20029;-84
2022/06/02 00:26:45;;;;;;;5.55;3.53;;;12.50;99.20;;;;;;5052081;28;20037;-86
2022/06/02 00:29:37;;;;;;;5.40;3.70;;;12.50;99.30;;;;;;5052845;28;20033;-83
2022/06/02 00:32:16;;;;;;;5.47;3.38;;;12.60;99.10;;;;;;5051815;28;20041;-85
2022/06/02 00:35:10;;;;;;;10.57;3.63;;;12.60;98.90;;;;;;5052835;28;20120;-87
2022/06/02 00:38:03;;;;;;;5.10;3.60;;;12.60;99.00;;;;;;5051661;28;20025;-86
2022/06/02 00:40:31;;;;;;;5.47;3.05;;;12.70;99.00;;;;;;5053122;28;20025;-84
2022/06/02 00:43:13;;;;;;;6.20;3.50;;;12.60;99.10;;;;;;5052642;28;20044;-85
2022/06/02 00:45:44;;;;;;;4.20;3.60;;;12.50;99.30;;;;;;5053305;28;20059;-86
2022/06/02 00:48:20;;;;;;;5.00;3.63;;;12.40;99.40;;;;;;5052788;28;20478;-85
2022/06/02 00:50:52;;;;;;;6.10;3.60;;;12.40;99.60;;;;;;5052515;28;20039;-85
2022/06/02 00:53:42;;;;;;;5.38;4.03;;;12.50;99.40;;;;;;5052929;28;20045;-88
2022/06/02 01:00:06;;;;;;;5.57;3.92;;;12.40;99.50;;;;;;5053050;28;20429;-88
2022/06/02 01:02:42;;;;;;;7.70;5.07;;;12.50;99.50;;;;;;5051393;28;20033;-88
2022/06/02 01:05:08;;;;;;;5.50;3.50;;;12.50;99.40;;;;;;5052799;28;20036;-89
2022/06/02 01:08:08;;;;;;;7.07;4.45;;;12.50;99.60;;;;;;5053136;28;20115;-89
2022/06/02 01:10:51;;;;;;;5.53;4.22;;;12.30;99.90;;;;;;5052198;28;20093;-87
2022/06/02 01:13:51;;;;;;;6.03;4.70;;;12.20;99.90;;;;;;5051084;28;20036;-86
2022/06/02 01:16:26;;;;;;;6.15;4.63;;;12.20;99.90;;;;;;5052195;28;20076;-84
2022/06/02 01:18:57;;;;;;;6.95;4.13;;;12.30;99.90;;;;;;5052282;28;20059;-86
2022/06/02 01:21:54;;;;;;;6.50;5.07;;;12.30;99.90;;;;;;5052580;28;20057;-86
2022/06/02 01:24:53;;;;;;;6.28;4.95;;;12.30;99.90;;;;;;5052159;28;20060;-85
2022/06/02 01:27:38;;;;;;;5.70;4.35;;;12.30;99.90;;;;;;5052608;28;20379;-88
2022/06/02 01:30:17;;;;;;;7.40;5.05;;;12.20;99.90;;;;;;5052806;28;20059;-85
2022/06/02 01:33:00;;;;;;;8.25;4.97;;;12.20;99.90;;;;;;5052121;28;20109;-86
2022/06/02 01:35:46;;;;;;;7.88;6.00;;;12.10;99.90;;;;;;5052446;28;20029;-85
2022/06/02 01:38:15;;;;;;;6.53;5.18;;;12.10;99.90;;;;;;5051892;28;20025;-85
2022/06/02 01:40:50;;;;;;;7.05;5.70;;;12.10;99.90;;;;;;5050683;28;20021;-87
2022/06/02 01:43:42;;;;;;;8.63;5.55;;;12.00;99.90;;;;;;5051866;28;20098;-88
2022/06/02 01:46:23;;;;;;;7.63;6.15;;;11.90;99.90;;;;;;5050435;28;20033;-83
2022/06/02 01:49:13;;;;;;;7.30;5.55;;;12.00;99.90;;;;;;5051388;28;20222;-84
2022/06/02 01:51:49;;;;;;;9.43;5.60;;;12.10;99.90;;;;;;5052397;28;20115;-83
2022/06/02 01:54:23;;;;;;;9.70;5.82;;;12.20;99.90;;;;;;5051699;28;20041;-84
2022/06/02 01:56:54;;;;;;;6.80;5.30;;;12.20;99.90;;;;;;5052092;28;20032;-83
2022/06/02 01:59:33;;;;;;;9.75;6.72;;;12.30;99.90;;;;;;5052860;28;20050;-85
2022/06/02 02:02:20;;;;;;;7.30;5.13;;;12.30;99.90;;;;;;5053743;28;20063;-85
2022/06/02 02:04:48;;;;;;;9.43;6.27;;;12.30;99.90;;;;;;5054002;28;20061;-83
2022/06/02 02:07:39;;;;;;;8.98;6.45;;;12.30;99.90;;;;;;5055381;28;20297;-85
2022/06/02 02:10:53;;;;;;;8.43;6.05;;;12.10;99.90;;;;;;5053345;28;20100;-84
2022/06/02 02:13:25;;;;;;;8.88;6.97;;;12.10;99.90;;;;;;5052223;28;20120;-82
2022/06/02 02:16:18;;;;;;;10.25;7.05;;;12.00;99.90;;;;;;5051303;28;20029;-83
2022/06/02 02:19:02;;;;;;;8.10;6.10;;;12.10;99.90;;;;;;5052000;28;20465;-84
2022/06/02 02:21:36;;;;;;;9.18;6.70;;;12.10;99.90;;;;;;5051238;28;20025;-85
2022/06/02 02:24:53;;;;;;;12.40;8.18;;;12.10;99.90;;;;;;5050832;28;20063;-84
2022/06/02 02:30:50;;;;;;;32.40;19.75;;;12.00;99.90;;;;;;5049603;28;20043;-84
2022/06/02 02:33:54;;;;;;;13.18;8.65;;;12.10;99.90;;;;;;5045842;28;20076;-86
2022/06/02 02:36:46;;;;;;;14.98;8.93;;;12.00;99.90;;;;;;5048369;28;20028;-82
2022/06/02 02:39:36;;;;;;;11.55;8.02;;;12.10;99.90;;;;;;5046770;28;20363;-85
2022/06/02 02:42:21;;;;;;;13.48;9.35;;;12.10;99.90;;;;;;5049591;28;20087;-83
2022/06/02 02:45:01;;;;;;;12.90;8.60;;;12.00;99.90;;;;;;5049174;28;20379;-82
2022/06/02 02:47:42;;;;;;;11.98;8.95;;;12.10;99.90;;;;;;5049376;28;20410;-83
2022/06/02 02:50:25;;;;;;;12.00;9.02;;;12.10;99.90;;;;;;5050516;28;20057;-84
2022/06/02 02:53:04;;;;;;;11.45;8.30;;;12.00;99.90;;;;;;5050786;28;20041;-84
2022/06/02 02:55:47;;;;;;;15.73;9.30;;;12.00;99.90;;;;;;5051389;28;20029;-83
2022/06/02 02:58:41;;;;;;;12.05;8.90;;;12.00;99.90;;;;;;5050694;28;20033;-83
2022/06/02 03:01:42;;;;;;;12.63;9.00;;;12.00;99.90;;;;;;5049380;28;20036;-84
2022/06/02 03:04:11;;;;;;;14.52;9.18;;;12.00;99.90;;;;;;5050161;28;20033;-85
2022/06/02 03:06:40;;;;;;;13.52;9.63;;;12.00;99.90;;;;;;5050726;28;20389;-84
2022/06/02 03:09:31;;;;;;;11.63;8.88;;;12.00;99.90;;;;;;5049239;28;20370;-84
2022/06/02 03:12:00;;;;;;;15.10;10.48;;;12.10;99.90;;;;;;5050308;28;20029;-83
2022/06/02 03:14:41;;;;;;;14.57;10.20;;;11.90;99.90;;;;;;5049198;28;20029;-83
2022/06/02 03:17:29;;;;;;;17.20;10.48;;;11.90;99.90;;;;;;5048974;28;20116;-82
2022/06/02 03:20:08;;;;;;;12.40;9.40;;;11.90;99.90;;;;;;5049149;28;20021;-84
2022/06/02 03:23:01;;;;;;;16.73;10.75;;;12.00;99.90;;;;;;5050030;28;20032;-84
2022/06/02 03:25:46;;;;;;;12.45;9.25;;;12.00;99.90;;;;;;5051318;28;20036;-84
2022/06/02 03:28:33;;;;;;;13.38;9.98;;;12.00;99.90;;;;;;5054370;28;20540;-85
2022/06/02 03:31:23;;;;;;;14.30;9.55;;;12.00;99.90;;;;;;5053462;28;20035;-86
2022/06/02 03:34:14;;;;;;;16.42;10.18;;;12.00;99.90;;;;;;5054114;28;20115;-84
2022/06/02 03:36:42;;;;;;;12.98;9.57;;;12.00;99.90;;;;;;5054816;28;20416;-86
2022/06/02 03:39:15;;;;;;;16.92;11.55;;;11.90;99.90;;;;;;5053121;28;20029;-85
2022/06/02 03:41:50;;;;;;;15.95;10.80;;;11.90;99.90;;;;;;5054142;28;20049;-84
2022/06/02 03:44:34;;;;;;;15.00;10.90;;;11.90;99.90;;;;;;5054267;28;20029;-84
2022/06/02 03:47:22;;;;;;;13.77;11.02;;;11.90;99.90;;;;;;5054052;28;20025;-84
2022/06/02 03:50:06;;;;;;;17.85;11.00;;;11.80;99.90;;;;;;5053903;28;20079;-85
2022/06/02 03:53:10;;;;;;;16.88;11.45;;;11.90;99.90;;;;;;5053652;28;20040;-85
2022/06/02 03:55:54;;;;;;;16.58;11.73;;;11.90;99.90;;;;;;5053690;28;20029;-85
2022/06/02 03:58:40;;;;;;;19.13;12.82;;;11.90;99.90;;;;;;5053294;28;20029;-85
2022/06/02 04:01:24;;;;;;;21.35;11.60;;;11.70;99.90;;;;;;5053640;28;20033;-84
2022/06/02 04:04:04;;;;;;;17.75;12.57;;;11.80;99.90;;;;;;5054389;28;20086;-84
2022/06/02 04:06:38;;;;;;;16.98;12.23;;;11.90;99.90;;;;;;5053219;28;20435;-85
2022/06/02 04:09:28;;;;;;;19.60;12.93;;;12.00;99.90;;;;;;5052628;28;20128;-85
2022/06/02 04:15:17;;;;;;;19.55;12.32;;;11.70;99.90;;;;;;5053191;28;20029;-84
2022/06/02 04:18:19;;;;;;;22.15;13.15;;;11.90;99.90;;;;;;5053352;28;20049;-85
2022/06/02 04:21:19;;;;;;;18.85;12.45;;;11.70;99.90;;;;;;5053180;28;20131;-84
2022/06/02 04:24:07;;;;;;;28.17;13.98;;;11.80;99.90;;;;;;5053449;28;20549;-83
2022/06/02 04:26:56;;;;;;;20.27;12.95;;;12.00;99.90;;;;;;5053347;28;20115;-84
2022/06/02 04:29:43;;;;;;;18.20;12.95;;;12.10;99.90;;;;;;5053749;28;20119;-83
2022/06/02 04:32:24;;;;;;;20.83;13.15;;;12.20;99.90;;;;;;5053220;28;20061;-85
2022/06/02 04:35:03;;;;;;;18.35;12.82;;;12.30;99.90;;;;;;5053636;28;20025;-83
2022/06/02 04:37:43;;;;;;;24.05;13.85;;;12.30;99.90;;;;;;5052170;28;20033;-83
2022/06/02 04:40:17;;;;;;;20.50;13.38;;;12.30;99.90;;;;;;5052280;28;20040;-84
2022/06/02 04:42:43;;;;;;;21.67;12.52;;;12.30;99.90;;;;;;5053392;28;20045;-84
2022/06/02 04:45:35;;;;;;;18.58;13.73;;;12.30;99.90;;;;;;5052988;28;20090;-83
2022/06/02 04:48:56;;;;;;;18.10;12.43;;;12.40;99.90;;;;;;5052793;28;20098;-85
2022/06/02 04:51:31;;;;;;;22.58;13.50;;;12.40;99.90;;;;;;5034090;28;20056;-83
2022/06/02 04:54:16;;;;;;;18.65;13.05;;;12.50;99.90;;;;;;5052411;28;20088;-84
2022/06/02 04:57:00;;;;;;;20.17;14.52;;;12.50;99.90;;;;;;5052964;28;20025;-83
2022/06/02 04:59:46;;;;;;;18.13;14.05;;;12.60;99.90;;;;;;5052018;28;20032;-85
2022/06/02 05:02:43;;;;;;;18.88;13.65;;;12.60;99.90;;;;;;5053280;28;20103;-83
2022/06/02 05:05:19;;;;;;;21.42;14.50;;;12.70;99.90;;;;;;5054069;28;20029;-87
2022/06/02 05:07:54;;;;;;;19.73;13.23;;;12.40;99.90;;;;;;5053585;28;20040;-88
2022/06/02 05:10:44;;;;;;;23.48;15.02;;;12.60;99.90;;;;;;5052174;28;20039;-87
2022/06/02 05:13:10;;;;;;;19.55;13.43;;;12.50;99.90;;;;;;5052400;28;20033;-86
2022/06/02 05:15:48;;;;;;;20.52;13.55;;;12.40;99.90;;;;;;5053811;28;20086;-85
2022/06/02 05:18:34;;;;;;;22.13;13.95;;;12.50;99.90;;;;;;5053641;28;20101;-87
2022/06/02 05:21:29;;;;;;;19.10;14.10;;;12.60;99.90;;;;;;5052777;28;20118;-86
2022/06/02 05:24:10;;;;;;;17.20;12.75;;;12.70;99.90;;;;;;5051793;28;20029;-87
2022/06/02 05:27:14;;;;;;;18.42;12.93;;;13.00;99.90;;;;;;5053351;28;20029;-89
2022/06/02 05:29:49;;;;;;;19.58;12.93;;;13.00;99.90;;;;;;5044385;28;20049;-88
2022/06/02 05:32:30;;;;;;;20.75;13.70;;;13.10;99.90;;;;;;5051934;28;20124;-89
2022/06/02 05:35:33;;;;;;;23.23;13.90;;;13.10;99.90;;;;;;5053320;28;20025;-86
2022/06/02 05:38:17;;;;;;;20.67;12.48;;;13.20;99.90;;;;;;5053136;28;20100;-84
2022/06/02 05:40:55;;;;;;;18.15;12.88;;;13.30;99.90;;;;;;5052341;28;20036;-84
2022/06/02 05:43:34;;;;;;;22.27;12.98;;;13.20;99.90;;;;;;5053061;28;20033;-89
2022/06/02 05:46:21;;;;;;;18.45;12.57;;;13.40;99.70;;;;;;5051914;28;20025;-88
2022/06/02 05:49:17;;;;;;;20.42;12.43;;;13.60;99.60;;;;;;5052758;28;20029;-89
2022/06/02 05:51:52;;;;;;;16.15;11.32;;;13.90;99.50;;;;;;5052692;28;20082;-86
2022/06/02 05:54:47;;;;;;;19.65;12.30;;;14.20;98.90;;;;;;5051969;28;20113;-88
2022/06/02 05:57:37;;;;;;;19.30;11.35;;;14.20;98.70;;;;;;5052428;28;20089;-88
2022/06/02 06:00:11;;;;;;;16.77;11.20;;;14.50;98.70;;;;;;5052614;28;20040;-86
2022/06/02 06:02:59;;;;;;;20.83;11.88;;;14.70;98.00;;;;;;5051384;28;20124;-81
2022/06/02 06:05:41;;;;;;;15.85;11.13;;;14.60;98.10;;;;;;5051962;28;20061;-85
2022/06/02 06:08:29;;;;;;;13.70;10.55;;;14.70;98.40;;;;;;5052098;28;20033;-88
2022/06/02 06:11:42;;;;;;;17.70;11.60;;;15.00;98.00;;;;;;5051375;28;20040;-86
2022/06/02 06:14:45;;;;;;;14.30;10.88;;;14.80;97.70;;;;;;5048018;28;20112;-75
2022/06/02 06:17:48;;;;;;;16.20;11.23;;;14.80;97.70;;;;;;5048866;28;20509;-83
2022/06/02 06:20:40;;;;;;;14.43;10.68;;;14.70;97.80;;;;;;5050432;28;20029;-84
2022/06/02 06:23:16;;;;;;;13.90;10.77;;;14.80;97.80;;;;;;5049785;28;20170;-82
2022/06/02 06:26:21;;;;;;;15.57;10.27;;;14.80;97.60;;;;;;5049993;28;20052;-79
2022/06/02 06:29:06;;;;;;;15.18;9.13;;;14.50;97.90;;;;;;5049560;28;20473;-78
2022/06/02 06:31:52;;;;;;;14.55;10.45;;;14.50;97.70;;;;;;5049425;28;20029;-79
2022/06/02 06:34:50;;;;;;;17.02;10.73;;;14.30;97.80;;;;;;5050999;28;20033;-85
2022/06/02 06:37:28;;;;;;;18.08;9.57;;;14.40;97.80;;;;;;5051698;28;20049;-84
2022/06/02 06:40:07;;;;;;;13.82;9.48;;;14.50;97.70;;;;;;5050791;28;20063;-84
2022/06/02 06:42:51;;;;;;;16.00;8.93;;;14.60;97.60;;;;;;5051355;28;20080;-81
2022/06/02 06:45:47;;;;;;;16.83;8.70;;;14.60;97.10;;;;;;5051679;28;20068;-84
2022/06/02 06:48:23;;;;;;;11.38;7.97;;;14.70;97.10;;;;;;5050839;28;20033;-85
2022/06/02 06:51:03;;;;;;;19.30;9.18;;;14.80;97.10;;;;;;5050662;28;20175;-81
2022/06/02 06:53:39;;;;;;;13.05;8.35;;;14.80;96.90;;;;;;5051113;28;20056;-82
2022/06/02 06:56:33;;;;;;;14.65;7.75;;;14.90;96.80;;;;;;5050651;28;20475;-79
2022/06/02 06:59:07;;;;;;;11.82;6.65;;;15.00;96.60;;;;;;5049541;28;20033;-81
2022/06/02 07:01:51;;;;;;;12.07;6.40;;;14.70;96.00;;;;;;5056685;28;20033;-81
2022/06/02 07:04:34;;;;;;;9.10;6.32;;;14.90;96.80;;;;;;5057469;28;20108;-80
2022/06/02 07:07:10;;;;;;;11.10;6.00;;;15.00;96.10;;;;;;5057331;28;20027;-80
2022/06/02 07:10:04;;;;;;;8.57;5.78;;;14.90;95.30;;;;;;5056955;28;20028;-80
2022/06/02 07:12:56;;;;;;;12.30;5.93;;;14.80;94.90;;;;;;5056420;28;20033;-76
2022/06/02 07:15:28;;;;;;;11.60;6.70;;;14.90;95.20;;;;;;5057028;28;20470;-80
2022/06/02 07:18:13;;;;;;;10.15;5.70;;;15.20;94.90;;;;;;5056804;28;20017;-80
2022/06/02 07:20:59;;;;;;;9.18;5.22;;;15.30;94.90;;;;;;5056861;28;20390;-78
2022/06/02 07:23:44;;;;;;;9.32;4.72;;;15.30;94.10;;;;;;5056541;28;20159;-79
2022/06/02 07:26:28;;;;;;;7.07;4.43;;;15.40;93.90;;;;;;5058545;28;20036;-82
2022/06/02 07:29:30;;;;;;;9.00;4.97;;;15.60;94.10;;;;;;5057542;28;20082;-83
2022/06/02 07:32:05;;;;;;;8.77;4.93;;;15.80;93.40;;;;;;5056695;28;20048;-79
2022/06/02 07:34:52;;;;;;;12.18;4.47;;;15.70;93.30;;;;;;5056843;28;20033;-76
2022/06/02 07:37:46;;;;;;;6.55;4.72;;;15.70;92.80;;;;;;5056110;28;20474;-75
2022/06/02 07:40:30;;;;;;;12.23;7.32;;;15.90;92.70;;;;;;5056308;28;20036;-79
2022/06/02 07:43:06;;;;;;;5.65;4.13;;;16.00;92.60;;;;;;5056687;28;20478;-78
2022/06/02 07:45:50;;;;;;;5.85;3.88;;;16.20;91.80;;;;;;5057137;28;20253;-79
2022/06/02 07:48:24;;;;;;;7.95;4.03;;;16.30;91.20;;;;;;5056750;28;20113;-78
2022/06/02 07:51:08;;;;;;;5.90;4.25;;;16.20;91.00;;;;;;5056171;28;20036;-77
2022/06/02 07:53:34;;;;;;;7.43;3.85;;;16.40;90.80;;;;;;5055718;28;20554;-78
2022/06/02 07:56:24;;;;;;;8.95;4.05;;;16.50;90.40;;;;;;5055944;28;20116;-79
2022/06/02 07:59:38;;;;;;;6.38;4.45;;;16.50;90.20;;;;;;5056302;28;20028;-77
2022/06/02 08:02:20;;;;;;;6.93;4.05;;;16.10;89.60;;;;;;5054227;28;20051;-79
2022/06/02 08:05:14;;;;;;;9.10;4.75;;;16.40;90.00;;;;;;5047123;28;20033;-80
2022/06/02 08:07:49;;;;;;;7.13;3.83;;;16.70;90.10;;;;;;5056619;28;20036;-77
2022/06/02 08:10:24;;;;;;;7.35;3.53;;;17.00;87.70;;;;;;5056677;28;20024;-83
2022/06/02 08:13:22;;;;;;;6.03;3.35;;;16.90;89.10;;;;;;5053828;28;20455;-82
2022/06/02 08:15:57;;;;;;;8.85;3.83;;;18.30;86.50;;;;;;5052993;28;20114;-82
2022/06/02 08:18:32;;;;;;;5.95;3.38;;;18.90;83.00;;;;;;5053921;28;20013;-79
2022/06/02 08:21:19;;;;;;;6.32;3.08;;;18.20;81.50;;;;;;5052952;28;20032;-77
2022/06/02 08:23:53;;;;;;;4.90;2.37;;;18.60;83.70;;;;;;5052848;28;20049;-80
2022/06/02 08:26:41;;;;;;;4.68;3.05;;;19.70;81.30;;;;;;5053230;28;20739;-81
2022/06/02 08:29:39;;;;;;;6.15;3.20;;;20.40;78.50;;;;;;5053355;28;20025;-80
2022/06/02 08:32:20;;;;;;;6.85;3.08;;;19.90;77.80;;;;;;5052935;28;20037;-77
2022/06/02 08:34:51;;;;;;;6.10;2.83;;;19.20;77.50;;;;;;5053155;28;20033;-77
2022/06/02 08:37:37;;;;;;;3.10;2.28;;;19.00;78.20;;;;;;5053307;28;20108;-82
2022/06/02 08:40:25;;;;;;;3.45;2.15;;;19.80;76.40;;;;;;5053443;28;20029;-84
2022/06/02 08:43:35;;;;;;;3.35;2.30;;;21.00;75.80;;;;;;5053141;28;20129;-82
2022/06/02 08:46:26;;;;;;;4.20;2.28;;;21.20;69.40;;;;;;5051873;28;20049;-78
2022/06/02 08:49:16;;;;;;;3.75;2.50;;;18.80;73.50;;;;;;5052335;28;20024;-80
2022/06/02 08:52:25;;;;;;;4.03;2.33;;;19.50;74.30;;;;;;5052951;28;20025;-78
2022/06/02 08:55:20;;;;;;;4.88;2.70;;;20.50;72.30;;;;;;5052219;28;20498;-79
2022/06/02 08:58:07;;;;;;;3.88;2.75;;;20.10;72.00;;;;;;5051769;28;20041;-80
2022/06/02 09:00:36;;;;;;;14.77;7.20;;;20.40;71.90;;;;;;5052991;28;20041;-86
2022/06/02 09:03:22;;;;;;;3.60;2.25;;;19.60;71.70;;;;;;5051817;28;20044;-85
2022/06/02 09:06:27;;;;;;;6.07;3.25;;;19.00;72.00;;;;;;5052462;28;20466;-85
2022/06/02 09:09:30;;;;;;;3.92;2.30;;;18.00;73.60;;;;;;5052593;28;20114;-85
2022/06/02 09:12:33;;;;;;;2.65;2.10;;;19.10;75.10;;;;;;5052038;28;20033;-82
2022/06/02 09:15:28;;;;;;;5.30;2.30;;;19.90;72.60;;;;;;5051166;28;20082;-87
2022/06/02 09:18:17;;;;;;;5.22;3.00;;;19.90;71.20;;;;;;5052572;28;20107;-79
2022/06/02 09:20:47;;;;;;;2.92;2.10;;;19.00;73.50;;;;;;5052192;28;20025;-81
2022/06/02 09:23:16;;;;;;;5.57;2.22;;;19.60;73.10;;;;;;5051490;28;20394;-78
2022/06/02 09:26:15;;;;;;;3.60;2.08;;;20.30;71.90;;;;;;5052391;28;20065;-85
2022/06/02 09:28:50;;;;;;;3.47;2.30;;;21.00;68.90;;;;;;5052435;28;20060;-84
2022/06/02 09:31:32;;;;;;;4.07;2.30;;;20.90;67.50;;;;;;5050874;28;20043;-82
2022/06/02 09:34:28;;;;;;;6.47;2.22;;;20.80;68.40;;;;;;5052143;28;20028;-82
2022/06/02 09:37:22;;;;;;;3.75;2.35;;;20.40;69.50;;;;;;5051916;28;20032;-80
2022/06/02 09:40:23;;;;;;;6.03;2.63;;;20.00;69.90;;;;;;5051623;28;20323;-81
2022/06/02 09:43:20;;;;;;;6.32;2.55;;;19.90;71.30;;;;;;5051870;28;20394;-87
2022/06/02 09:45:55;;;;;;;4.70;2.90;;;19.90;70.90;;;;;;5052101;28;20032;-82
2022/06/02 09:48:32;;;;;;;6.80;2.85;;;19.60;70.60;;;;;;5051416;28;20048;-83
2022/06/02 09:51:22;;;;;;;6.28;2.40;;;19.80;71.00;;;;;;5050272;28;20371;-82
2022/06/02 09:54:20;;;;;;;5.15;1.85;;;19.50;70.10;;;;;;5051303;28;20033;-83
2022/06/02 09:57:55;;;;;;;3.58;1.88;;;19.90;70.70;;;;;;5051384;28;20029;-82
2022/06/02 10:00:04;;;;;;;4.50;1.60;;;19.80;70.40;;;;;;5051393;28;20033;-79
2022/06/02 10:02:39;;;;;;;2.88;1.95;;;20.00;69.90;;;;;;5051885;28;20366;-87
2022/06/02 10:05:37;;;;;;;7.32;2.70;;;19.80;67.90;;;;;;5052153;28;20033;-86
2022/06/02 10:08:09;;;;;;;9.52;2.50;;;19.50;69.00;;;;;;5052184;28;20153;-88
2022/06/02 10:10:49;;;;;;;6.93;1.90;;;19.20;70.40;;;;;;5051622;28;20095;-87
2022/06/02 10:13:45;;;;;;;3.75;1.45;;;19.40;70.90;;;;;;5052063;28;20044;-86
2022/06/02 10:16:55;;;;;;;5.47;1.98;;;19.60;71.30;;;;;;5052021;28;20039;-86
2022/06/02 10:19:47;;;;;;;4.63;2.85;;;19.70;70.80;;;;;;5053089;28;20031;-90
2022/06/02 10:23:01;;;;;;;4.72;2.63;;;19.70;70.80;;;;;;5031531;28;20028;-81
2022/06/02 10:25:49;;;;;;;4.60;2.50;;;19.60;71.30;;;;;;5030730;28;20069;-84
2022/06/02 10:28:44;;;;;;;3.63;1.65;;;19.40;69.30;;;;;;5032809;28;20109;-83
2022/06/02 10:31:51;;;;;;;4.32;1.65;;;19.30;68.90;;;;;;5035928;28;20025;-86
2022/06/02 10:34:35;;;;;;;3.28;1.55;;;19.20;69.90;;;;;;5032569;28;20088;-81
2022/06/02 10:37:28;;;;;;;4.55;2.00;;;19.10;70.20;;;;;;5031196;28;20055;-82
2022/06/02 10:40:11;;;;;;;3.38;1.83;;;19.20;71.20;;;;;;5032283;28;20032;-83
2022/06/02 10:42:48;;;;;;;4.45;1.90;;;19.10;70.50;;;;;;5031576;28;20476;-84
2022/06/02 10:45:52;;;;;;;3.28;1.70;;;19.40;71.00;;;;;;5031153;28;20124;-83
2022/06/02 10:48:44;;;;;;;2.47;1.38;;;19.20;68.80;;;;;;5030203;28;20034;-85
2022/06/02 10:51:38;;;;;;;4.68;1.85;;;19.30;71.70;;;;;;5031324;28;20037;-85
2022/06/02 10:54:24;;;;;;;2.83;2.20;;;19.30;69.40;;;;;;5030539;28;20347;-77
2022/06/02 10:57:12;;;;;;;4.85;1.90;;;19.30;70.20;;;;;;5030382;28;20363;-79
2022/06/02 11:00:02;;;;;;;5.15;1.77;;;19.30;70.20;;;;;;5030909;28;20044;-80
2022/06/02 11:02:54;;;;;;;5.30;2.03;;;19.70;70.00;;;;;;5030527;28;20025;-80
2022/06/02 11:05:59;;;;;;;3.22;1.40;;;19.90;69.50;;;;;;5029186;28;20044;-78
2022/06/02 11:08:45;;;;;;;1.85;1.40;;;19.90;67.80;;;;;;5031061;28;20452;-85
2022/06/02 11:11:33;;;;;;;4.15;2.05;;;19.70;68.00;;;;;;5030703;28;20043;-78
2022/06/02 11:14:37;;;;;;;4.43;2.28;;;19.50;68.60;;;;;;5030356;28;20026;-76
2022/06/02 11:17:37;;;;;;;4.53;2.05;;;19.10;68.40;;;;;;5030248;28;20033;-79
2022/06/02 11:20:20;;;;;;;5.43;1.90;;;19.20;69.70;;;;;;5030034;28;20040;-80
2022/06/02 11:23:10;;;;;;;4.32;1.90;;;19.40;69.30;;;;;;5030052;28;20030;-81
2022/06/02 11:26:22;;;;;;;3.85;1.95;;;19.40;68.50;;;;;;5028960;28;20113;-82
2022/06/02 11:29:21;;;;;;;2.65;1.60;;;19.00;68.20;;;;;;5028934;28;20359;-81
2022/06/02 11:31:56;;;;;;;5.38;2.90;;;19.10;70.50;;;;;;5029726;28;20091;-77
2022/06/02 11:34:49;;;;;;;4.85;1.55;;;19.20;71.00;;;;;;5029763;28;20037;-79
2022/06/02 11:37:51;;;;;;;8.10;4.40;;;19.50;70.90;;;;;;5029930;28;20029;-79
2022/06/02 11:40:39;;;;;;;8.77;4.40;;;19.50;70.00;;;;;;5030152;28;20025;-80
2022/06/02 11:43:20;;;;;;;3.90;2.30;;;19.30;70.40;;;;;;5030029;28;20073;-78
2022/06/02 11:46:23;;;;;;;5.25;2.40;;;19.30;70.80;;;;;;5030496;28;20073;-79
2022/06/02 11:49:22;;;;;;;2.78;1.85;;;19.50;71.50;;;;;;5033326;28;20406;-75
2022/06/02 11:52:12;;;;;;;10.27;4.95;;;19.50;71.20;;;;;;5033345;28;20052;-80
2022/06/02 11:54:46;;;;;;;2.90;1.73;;;19.30;70.80;;;;;;5033032;28;20459;-81
2022/06/02 11:57:44;;;;;;;3.30;1.77;;;19.20;70.50;;;;;;5033319;28;20425;-79
2022/06/02 12:00:30;;;;;;;2.60;1.50;;;19.60;70.40;;;;;;5033617;28;20424;-78
2022/06/02 12:03:24;;;;;;;2.63;1.85;;;19.60;69.90;;;;;;5032206;28;20037;-81
2022/06/02 12:06:22;;;;;;;3.78;1.77;;;19.90;69.30;;;;;;5033090;28;20038;-79
2022/06/02 12:09:06;;;;;;;;;;;19.90;69.50;;;;;;5033434;28;20056;-80
2022/06/02 12:11:49;;;;;;;2.35;1.67;;;19.90;69.50;;;;;;5031706;28;20009;-87
2022/06/02 12:14:40;;;;;;;2.28;1.50;;;19.90;69.50;;;;;;5033606;28;20311;-79
2022/06/02 12:17:41;;;;;;;4.40;2.30;;;19.90;69.60;;;;;;5033251;28;20045;-78
2022/06/02 12:20:32;;;;;;;6.47;3.38;;;19.90;69.40;;;;;;5033067;28;20344;-83
2022/06/02 12:23:19;;;;;;;4.18;2.53;;;20.10;69.10;;;;;;5032271;28;20029;-85
2022/06/02 12:25:55;;;;;;;3.90;2.08;;;20.20;68.50;;;;;;5032962;28;20108;-84
2022/06/02 12:28:35;;;;;;;4.75;1.85;;;20.00;67.80;;;;;;5033443;28;20060;-78
2022/06/02 12:31:38;;;;;;;4.68;1.65;;;19.80;69.70;;;;;;5032910;28;20022;-83
2022/06/02 12:34:15;;;;;;;3.40;1.70;;;19.80;70.10;;;;;;5033578;28;20326;-84
2022/06/02 12:37:08;;;;;;;3.83;1.55;;;20.00;69.50;;;;;;5032648;28;20049;-81
2022/06/02 12:39:40;;;;;;;2.08;1.42;;;20.30;68.50;;;;;;5031510;28;20360;-84
2022/06/02 12:42:36;;;;;;;8.73;1.90;;;20.50;67.90;;;;;;5031711;28;20064;-79
2022/06/02 12:45:30;;;;;;;3.75;1.70;;;20.40;67.30;;;;;;5031538;28;20030;-77
2022/06/02 12:48:13;;;;;;;3.03;1.77;;;20.10;68.90;;;;;;5032805;28;20127;-76
2022/06/02 12:51:23;;;;;;;3.40;1.65;;;20.00;69.60;;;;;;5032393;28;20033;-78
2022/06/02 12:54:03;;;;;;;2.55;1.80;;;19.80;69.80;;;;;;5031896;28;20030;-78
2022/06/02 12:56:58;;;;;;;3.38;1.70;;;19.70;69.80;;;;;;5032475;28;20108;-78
2022/06/02 12:59:46;;;;;;;1.83;1.27;;;19.60;70.00;;;;;;5032173;28;20083;-79
2022/06/02 13:02:48;;;;;;;5.28;2.22;;;19.80;70.20;;;;;;5032428;28;20498;-84
2022/06/02 13:05:53;;;;;;;2.47;1.67;;;19.70;69.40;;;;;;5033815;28;20030;-83
2022/06/02 13:08:24;;;;;;;1.92;1.30;;;19.90;68.50;;;;;;5032549;28;20030;-80
2022/06/02 13:11:02;;;;;;;4.05;1.30;;;19.90;68.60;;;;;;5032259;28;20032;-81
2022/06/02 13:13:58;;;;;;;3.95;1.33;;;19.90;69.00;;;;;;5032012;28;20412;-85
2022/06/02 13:16:57;;;;;;;2.33;1.50;;;19.90;69.30;;;;;;5032019;28;20037;-78
2022/06/02 13:19:55;;;;;;;4.00;1.40;;;19.90;69.80;;;;;;5032010;28;20061;-82
2022/06/02 13:22:40;;;;;;;4.38;1.88;;;20.00;69.40;;;;;;5038197;28;20458;-82
2022/06/02 13:25:21;;;;;;;5.13;1.63;;;19.90;69.20;;;;;;5031939;28;20134;-83
2022/06/02 13:28:20;;;;;;;1.60;0.77;;;19.90;68.10;;;;;;5032530;28;20471;-79
2022/06/02 13:31:10;;;;;;;3.53;1.60;;;19.80;67.40;;;;;;5005810;28;20037;-82
2022/06/02 13:34:13;;;;;;;4.72;2.15;;;19.80;68.00;;;;;;5033085;28;20021;-83
2022/06/02 13:37:23;;;;;;;6.68;2.10;;;19.90;67.60;;;;;;5031689;28;20475;-77
2022/06/02 13:40:15;;;;;;;7.22;1.90;;;19.80;68.20;;;;;;5030732;28;20037;-86
2022/06/02 13:43:17;;;;;;;3.22;1.10;;;20.00;69.00;;;;;;5031004;28;20149;-78
2022/06/02 13:46:28;;;;;;;6.60;1.55;;;20.10;68.70;;;;;;5031969;28;20052;-85
2022/06/02 13:49:28;;;;;;;3.90;1.33;;;20.10;68.70;;;;;;5031703;28;20345;-83
2022/06/02 13:52:06;;;;;;;7.25;2.40;;;20.30;69.10;;;;;;5032065;28;20033;-84
2022/06/02 13:57:50;;;;;;;1.85;1.50;;;20.20;68.90;;;;;;5031861;28;20040;-82
2022/06/02 14:00:51;;;;;;;6.63;1.95;;;20.30;68.40;;;;;;5031761;28;20034;-86
2022/06/02 14:03:38;;;;;;;2.05;1.20;;;20.10;68.50;;;;;;5030627;28;20427;-84
2022/06/02 14:06:39;;;;;;;2.53;1.70;;;20.40;68.10;;;;;;5031663;28;20029;-82
2022/06/02 14:09:39;;;;;;;1.55;0.90;;;20.50;67.60;;;;;;5031235;28;20030;-83
2022/06/02 14:12:32;;;;;;;4.03;1.15;;;20.50;67.40;;;;;;5031697;28;20037;-76
2022/06/02 14:15:07;;;;;;;2.13;1.33;;;20.50;67.70;;;;;;5030034;28;20436;-83
2022/06/02 14:17:53;;;;;;;2.22;1.00;;;20.60;68.00;;;;;;5029031;28;20029;-79
2022/06/02 14:20:22;;;;;;;3.92;1.40;;;20.70;67.50;;;;;;5030724;28;20108;-85
2022/06/02 14:22:55;;;;;;;4.07;1.20;;;20.70;67.30;;;;;;5031164;28;20053;-81
2022/06/02 14:25:24;;;;;;;2.63;1.38;;;20.40;67.20;;;;;;5029733;28;20136;-79
2022/06/02 14:28:11;;;;;;;2.28;1.55;;;20.50;67.60;;;;;;5031226;28;20025;-86
2022/06/02 14:30:47;;;;;;;2.65;1.45;;;20.30;67.20;;;;;;5031448;28;20029;-79
2022/06/02 14:33:38;;;;;;;2.95;1.30;;;20.30;68.00;;;;;;5030441;28;20531;-81
2022/06/02 14:36:25;;;;;;;3.63;1.60;;;20.20;68.00;;;;;;5032722;28;20448;-85